Santa Cruz, CA

11:02 PM PST on November 25, 2014 (GMT -0800)
Lower Escalona | Change Station
CLOSE
Current Station
Personal Weather Station
Location: Santa Cruz, CA
Elevation: 157 ft
Nearby Weather Stations

Elev 157 ft 36.98 °N, 122.04 °W | Updated 1 minute ago

Clear
Clear
53.1 °F
Feels Like 53.1 °F
N
0.0
Wind Variable Wind from South
Gusts 2.0 mph

Today
High -- | Low -- °F
--% Chance of Precip.
Yesterday
High -- | Low -- °F
Precip. -- in
6:56 AM 4:53 PM
Waxing Crescent, 17% visible
Pressure 30.32 in
Visibility 10.0 miles
Clouds Clear
Dew Point 45 °F
Humidity 75%
Rainfall 0.00 in
Snow Depth Not available.
UV 0 out of 12
Pollen 2.70 out of 12
Air Quality Not available.
Flu Activity Not available.
METAR KWVI 260653Z AUTO 00000KT 10SM CLR 12/06 A3032 RMK AO2 SLP268 T01220061

More Conditions Fewer Conditions

Pressure 30.32 in
Visibility 10.0 miles
Clouds Clear
Dew Point 45 °F
Humidity 75%
Rainfall 0.00 in
Snow Depth Not available.
UV 0 out of 12
Pollen 2.70 out of 12
Air Quality Not available.
Flu Activity Not available.
METAR KWVI 260653Z AUTO 00000KT 10SM CLR 12/06 A3032 RMK AO2 SLP268 T01220061

More Conditions Fewer Conditions

10-Day Weather Forecast

Almanac

Astronomy

Nov. 25, 2014 Rise Set
Actual Time
Civil Twilight
Nautical Twilight
Astronomical Twilight
Moon
Length of Visible Light
Length of Day
Tomorrow will be .
, % of the Moon is Illuminated

Today's Extremes

State Highs State Lows

Community

WunderPhotos

Upload Photos

1,773,694 photos uploaded!

WunderBlogs® & News

Nearby

Air Quality

  Air Quality AQ Index Pollutant
Not available.

Snow Depth

Station Depth Elevation

Earthquake Activity

City Distance Mag. Time & Date
Minimum magnitude displayed is 2.5.

Coastal Water Temperatures

Place Temperature

Nearby Weather Stations